Airfield :
LOGIN :

Register | Disclaimer

   EN    FR    IT 

 










Legend :    VFR   Marginal VFR   IFR   Intensive IFR   Very Intensive IFR
Visi :
Ceiling :
>= 8 km
>= 3000ft
5 to 8 km
1000 to 3000 ft
1500m to 5 km
500 to 1000 ft
800 to 1500m
200 to 500 ft
< 800m
< 200 ft
Symbols :   Thunderstorms  Fog  Heavy snow  Heavy precipitations  Wind > 20 kt
SIGMETs :     Misc.  Thunderstorms  Icing  Turbulence  Mountain Waves  Volcanic Ashes







- Airport Elevation : 276 ft
- IATA code : RBA


GMME - Rabat

CURRENT METAR :
  • 181530Z 36011KT 6000 FEW016 BKN200 19/10 Q1019 NOSIG

EXPIRED METARs :
  • 181500Z 35011KT 6000 FEW016 BKN200 19/10 Q1019 NOSIG
  • 181430Z 00000KT 6000 FEW016 BKN200 19/09 Q1019 NOSIG
  • 181400Z 34010KT 320V020 6000 FEW016 BKN200 20/09 Q1019 NOSIG
  • 181330Z 34011KT 310V010 6000 FEW016 SCT200 20/10 Q1020 NOSIG
  • 181300Z 36010KT 6000 SCT016 SCT200 19/11 Q1020 NOSIG

TAF TAF GMME
Valid from the 18 at 12:00 until the 19 at 18:00 UTC


181100Z 1812/1918 36010KT 6000 SCT026
TEMPO 1821/1909 VRB02KT 3000 BR BKN008
No reported NOTAMs for that airfield.



MET'MAP, your aeronautical weather chart ! - Copyright ORBIFLY December 2007 - Disclaimer

ORBIFLY MET'MAP TEAM :

Programming & Development : Alexandra Zaïnal
Concept & Development : Baudouin d'Aumeries
Co-Development & Prog : Marc-Olivier Méhu
Technical & hardware support : Manuel Goepfert

Contact : metmap@orbifly.com




SOURCES & CREDITS :

   NOAA